Time;durP1;ratioP1;P1;durP2;ratioP2;P2;SDS_P1;SDS_P2;PMS_P1;PMS_P2;Temp;Humidity;BMP_temperature;BMP_pressure;BME280_temperature;BME280_humidity;BME280_pressure;Samples;Min_cycle;Max_cycle;Signal;HPM_P1;HPM_P2
2024/01/11 00:02:26;;;;;;;64.6;36.9;;;;;;;-9.14;83.66;99828.333333333;;;;
2024/01/11 00:12:26;;;;;;;64.6;36.9;;;;;;;-9.05;83.11;99813.333333333;;;;
2024/01/11 00:23:26;;;;;;;70.6;42.4;;;;;;;-8.99;82.66;99810;;;;
2024/01/11 00:34:26;;;;;;;70.6;42.4;;;;;;;-8.92;82.32;99795;;;;
2024/01/11 00:45:26;;;;;;;66.8;37.4;;;;;;;-8.84;82.65;99785;;;;
2024/01/11 00:55:26;;;;;;;66.8;37.4;;;;;;;-8.79;82.33;99790;;;;
2024/01/11 01:06:27;;;;;;;66.8;37.4;;;;;;;-8.81;82.27;99770;;;;
2024/01/11 01:17:26;;;;;;;84.4;46.3;;;;;;;-8.66;82.28;99761.666666667;;;;
2024/01/11 01:27:26;;;;;;;84.4;46.3;;;;;;;-8.59;81.86;99766.666666667;;;;
2024/01/11 01:38:26;;;;;;;84.4;46.3;;;;;;;-8.61;81.24;99755;;;;
2024/01/11 01:48:26;;;;;;;79.6;40;;;;;;;-8.64;81.43;99756.666666667;;;;
2024/01/11 01:59:26;;;;;;;79.6;40;;;;;;;-8.68;81.97;99750;;;;
2024/01/11 02:09:26;;;;;;;79.6;40;;;;;;;-8.43;82.16;99751.666666667;;;;
2024/01/11 02:20:26;;;;;;;88.6;53.8;;;;;;;-8.31;81.27;99740;;;;
2024/01/11 02:30:26;;;;;;;88.6;53.8;;;;;;;-8.31;81.02;99730;;;;
2024/01/11 02:41:26;;;;;;;88.6;53.8;;;;;;;-8.3;80.85;99723.333333333;;;;
2024/01/11 02:52:26;;;;;;;105.4;60.1;;;;;;;-8.18;80.55;99713.333333333;;;;
2024/01/11 03:03:26;;;;;;;105.4;60.1;;;;;;;-8.23;80.05;99726.666666667;;;;
2024/01/11 03:14:26;;;;;;;109.1;58;;;;;;;-8.27;80.21;99738.333333333;;;;
2024/01/11 03:25:26;;;;;;;109.1;58;;;;;;;-8.49;80.66;99718.333333333;;;;
2024/01/11 03:35:26;;;;;;;109.1;58;;;;;;;-8.55;80.47;99698.333333333;;;;
2024/01/11 03:46:27;;;;;;;82.6;49.2;;;;;;;-8.53;80.13;99688.333333333;;;;
2024/01/11 03:57:26;;;;;;;82.6;49.2;;;;;;;-8.61;79.88;99691.666666667;;;;
2024/01/11 04:08:26;;;;;;;82.6;49.2;;;;;;;-8.6;79.87;99695;;;;
2024/01/11 04:19:27;;;;;;;85.1;44.4;;;;;;;-8.67;79.85;99675;;;;
2024/01/11 04:29:26;;;;;;;85.1;44.4;;;;;;;-8.69;79.32;99683.333333333;;;;
2024/01/11 04:40:26;;;;;;;85.1;44.4;;;;;;;-8.77;79.4;99673.333333333;;;;
2024/01/11 04:51:26;;;;;;;61.3;34;;;;;;;-8.83;79.61;99648.333333333;;;;
2024/01/11 05:01:26;;;;;;;61.3;34;;;;;;;-8.76;79.37;99638.333333333;;;;
2024/01/11 05:12:26;;;;;;;59.2;30.7;;;;;;;-8.91;79.3;99641.666666667;;;;
2024/01/11 05:22:26;;;;;;;59.2;30.7;;;;;;;-8.87;79.45;99625;;;;
2024/01/11 05:33:26;;;;;;;59.2;30.7;;;;;;;-8.9;79.65;99586.666666667;;;;
2024/01/11 05:43:26;;;;;;;38.7;23.1;;;;;;;-8.86;79.31;99590;;;;
2024/01/11 05:53:27;;;;;;;38.7;23.1;;;;;;;-9.15;79.36;99583.333333333;;;;
2024/01/11 06:04:26;;;;;;;38.7;23.1;;;;;;;-9.31;80.02;99610;;;;
2024/01/11 06:15:26;;;;;;;67.7;34;;;;;;;-9.35;80.1;99586.666666667;;;;
2024/01/11 06:25:27;;;;;;;67.7;34;;;;;;;-9.18;79.66;99608.333333333;;;;
2024/01/11 06:36:26;;;;;;;67.7;34;;;;;;;-9.19;79.47;99603.333333333;;;;
2024/01/11 06:47:26;;;;;;;63.9;37.8;;;;;;;-9.2;79.25;99591.666666667;;;;
2024/01/11 06:57:26;;;;;;;63.9;37.8;;;;;;;-9.04;79.78;99555;;;;
2024/01/11 07:08:26;;;;;;;63.9;37.8;;;;;;;-8.99;80.46;99506.666666667;;;;
2024/01/11 07:19:26;;;;;;;68;36.7;;;;;;;-8.74;79.65;99506.666666667;;;;
2024/01/11 07:30:28;;;;;;;68;36.7;;;;;;;-8.32;79.7;99478.333333333;;;;
2024/01/11 07:41:27;;;;;;;68;36.7;;;;;;;-7.54;80.16;99483.333333333;;;;
2024/01/11 07:52:26;;;;;;;58.7;33.1;;;;;;;-6.89;77.98;99501.666666667;;;;
2024/01/11 07:57:49;;;;;;;58.7;33.1;;;;;;;-6.79;77.43;99523.333333333;;;;
2024/01/11 08:07:50;;;;;;;58.7;33.1;;;;;;;-6.06;78.44;99498.333333333;;;;
2024/01/11 08:17:50;;;;;;;73;43.5;;;;;;;-5.08;76.42;99476.666666667;;;;
2024/01/11 08:28:50;;;;;;;73;43.5;;;;;;;-4.5;75.36;99480;;;;
2024/01/11 08:39:50;;;;;;;73;43.5;;;;;;;-3.98;74.02;99455;;;;
2024/01/11 08:49:50;;;;;;;73.8;43.3;;;;;;;-3.58;72.94;99463.333333333;;;;
2024/01/11 09:00:50;;;;;;;73.8;43.3;;;;;;;-2.95;71.96;99466.666666667;;;;
2024/01/11 09:10:50;;;;;;;73.8;43.3;;;;;;;-2.65;70.63;99456.666666667;;;;
2024/01/11 09:21:50;;;;;;;58.7;36.3;;;;;;;-2.17;71.15;99466.666666667;;;;
2024/01/11 09:31:50;;;;;;;58.7;36.3;;;;;;;-1.88;69.81;99476.666666667;;;;
2024/01/11 09:42:50;;;;;;;59.9;35.4;;;;;;;-1.52;67.52;99465;;;;
2024/01/11 09:53:50;;;;;;;59.9;35.4;;;;;;;-0.93;65.26;99438.333333333;;;;
2024/01/11 10:04:52;;;;;;;59.9;35.4;;;;;;;-0.53;64.23;99426.666666667;;;;
2024/01/11 10:14:50;;;;;;;50.6;25.9;;;;;;;-0.18;61;99408.333333333;;;;
2024/01/11 10:24:50;;;;;;;50.6;25.9;;;;;;;-0.21;58.96;99403.333333333;;;;
2024/01/11 10:34:50;;;;;;;50.6;25.9;;;;;;;-0.11;58.31;99395;;;;
2024/01/11 10:45:53;;;;;;;19.7;11.7;;;;;;;-0.03;58.06;99375;;;;
2024/01/11 10:55:50;;;;;;;19.7;11.7;;;;;;;0.34;57.19;99360;;;;
2024/01/11 11:06:50;;;;;;;19.7;11.7;;;;;;;0.59;55.02;99340;;;;
2024/01/11 11:16:50;;;;;;;20.6;9.5;;;;;;;0.74;56.52;99336.666666667;;;;
2024/01/11 11:27:50;;;;;;;20.6;9.5;;;;;;;0.7;54.43;99311.666666667;;;;
2024/01/11 11:37:50;;;;;;;20.6;9.5;;;;;;;0.72;54.15;99291.666666667;;;;
2024/01/11 11:47:50;;;;;;;12.3;7.2;;;;;;;0.66;54.9;99275;;;;
2024/01/11 11:58:52;;;;;;;12.3;7.2;;;;;;;0.34;55.98;99260;;;;
2024/01/11 12:09:50;;;;;;;12.3;7.2;;;;;;;0.32;56.37;99255;;;;
2024/01/11 12:20:50;;;;;;;15.8;8;;;;;;;0.55;56.47;99240;;;;
2024/01/11 12:30:50;;;;;;;15.8;8;;;;;;;0.41;56.38;99218.333333333;;;;
2024/01/11 12:40:50;;;;;;;13.3;8.4;;;;;;;0.16;56.77;99208.333333333;;;;
2024/01/11 12:50:50;;;;;;;13.3;8.4;;;;;;;0.1;56.74;99176.666666667;;;;
2024/01/11 13:01:50;;;;;;;13.3;8.4;;;;;;;0.21;57.22;99156.666666667;;;;
2024/01/11 13:11:50;;;;;;;20.5;12;;;;;;;0.37;57.46;99168.333333333;;;;
2024/01/11 13:21:50;;;;;;;20.5;12;;;;;;;0.35;57.31;99153.333333333;;;;
2024/01/11 13:32:51;;;;;;;20.5;12;;;;;;;0.27;58.58;99156.666666667;;;;
2024/01/11 13:43:50;;;;;;;18;10.7;;;;;;;-0.02;58.98;99136.666666667;;;;
2024/01/11 13:53:50;;;;;;;18;10.7;;;;;;;-0.41;61.01;99153.333333333;;;;
2024/01/11 14:04:50;;;;;;;18;10.7;;;;;;;-0.66;62.8;99171.666666667;;;;
2024/01/11 14:14:50;;;;;;;22;12.5;;;;;;;-0.69;63.15;99168.333333333;;;;
2024/01/11 14:25:50;;;;;;;22;12.5;;;;;;;-0.93;64.89;99170;;;;
2024/01/11 14:36:50;;;;;;;22;12.5;;;;;;;-1.04;66.14;99178.333333333;;;;
2024/01/11 14:46:50;;;;;;;23.5;13.5;;;;;;;-1.18;67.07;99195;;;;
2024/01/11 14:56:50;;;;;;;23.5;13.5;;;;;;;-1.28;67.47;99216.666666667;;;;
2024/01/11 15:07:50;;;;;;;23.5;13.5;;;;;;;-1.66;70.78;99245;;;;
2024/01/11 15:17:50;;;;;;;28.6;17.1;;;;;;;-1.88;73.34;99248.333333333;;;;
2024/01/11 15:28:50;;;;;;;28.6;17.1;;;;;;;-1.89;74.15;99236.666666667;;;;
2024/01/11 15:39:50;;;;;;;28.6;17.1;;;;;;;-2.02;77.52;99236.666666667;;;;
2024/01/11 15:49:50;;;;;;;27;16.2;;;;;;;-2.06;79.21;99243.333333333;;;;
2024/01/11 15:59:50;;;;;;;27;16.2;;;;;;;-2.28;81.66;99258.333333333;;;;
2024/01/11 16:10:50;;;;;;;34.5;22;;;;;;;-2.39;83.4;99258.333333333;;;;
2024/01/11 16:21:50;;;;;;;34.5;22;;;;;;;-2.55;85.39;99260;;;;
2024/01/11 16:31:15;;;;;;;34.5;22;;;;;;;-2.62;85.08;99260;;;;
2024/01/11 16:41:15;;;;;;;39.2;22.8;;;;;;;-2.72;86.11;99253.333333333;;;;
2024/01/11 16:52:15;;;;;;;39.2;22.8;;;;;;;-2.69;86.23;99258.333333333;;;;
2024/01/11 17:03:15;;;;;;;39.2;22.8;;;;;;;-2.67;86.3;99251.666666667;;;;
2024/01/11 17:13:15;;;;;;;33.4;22.5;;;;;;;-2.68;86.75;99241.666666667;;;;
2024/01/11 17:23:17;;;;;;;33.4;22.5;;;;;;;-2.68;86.3;99245;;;;
2024/01/11 17:34:15;;;;;;;33.4;22.5;;;;;;;-2.67;86.57;99251.666666667;;;;
2024/01/11 17:45:15;;;;;;;34;21.9;;;;;;;-2.6;86.39;99263.333333333;;;;
2024/01/11 17:56:17;;;;;;;34;21.9;;;;;;;-2.68;86.23;99268.333333333;;;;
2024/01/11 18:06:15;;;;;;;34;21.9;;;;;;;-2.73;86.25;99270;;;;
2024/01/11 18:16:15;;;;;;;36.1;22.7;;;;;;;-2.63;85.74;99275;;;;
2024/01/11 18:27:15;;;;;;;36.1;22.7;;;;;;;-2.53;86.03;99286.666666667;;;;
2024/01/11 18:37:15;;;;;;;36.1;22.7;;;;;;;-2.58;86.32;99288.333333333;;;;
2024/01/11 18:48:16;;;;;;;31.8;23.2;;;;;;;-2.53;85.96;99271.666666667;;;;
2024/01/11 18:59:16;;;;;;;31.8;23.2;;;;;;;-2.61;85.92;99261.666666667;;;;
2024/01/11 19:09:15;;;;;;;31.8;23.2;;;;;;;-2.61;86.17;99265;;;;
2024/01/11 19:19:15;;;;;;;34.6;20.8;;;;;;;-2.62;86.58;99278.333333333;;;;
2024/01/11 19:30:16;;;;;;;34.6;20.8;;;;;;;-2.59;87.41;99275;;;;
2024/01/11 19:41:15;;;;;;;39.4;22;;;;;;;-2.56;87.42;99276.666666667;;;;
2024/01/11 19:51:15;;;;;;;39.4;22;;;;;;;-2.46;87.73;99280;;;;
2024/01/11 20:01:15;;;;;;;39.4;22;;;;;;;-2.49;87.09;99271.666666667;;;;
2024/01/11 20:11:15;;;;;;;42.3;21.3;;;;;;;-2.49;86.98;99265;;;;
2024/01/11 20:21:15;;;;;;;42.3;21.3;;;;;;;-2.66;87.43;99270;;;;
2024/01/11 20:31:16;;;;;;;42.3;21.3;;;;;;;-2.8;87.92;99270;;;;
2024/01/11 20:42:15;;;;;;;30.8;19.3;;;;;;;-2.66;88.1;99281.666666667;;;;
2024/01/11 20:52:15;;;;;;;30.8;19.3;;;;;;;-2.69;88.13;99290;;;;
2024/01/11 21:03:15;;;;;;;30.8;19.3;;;;;;;-2.54;87.86;99311.666666667;;;;
2024/01/11 21:14:15;;;;;;;30.4;19.3;;;;;;;-2.72;88.02;99310;;;;
2024/01/11 21:25:15;;;;;;;30.4;19.3;;;;;;;-2.61;87.7;99315;;;;
2024/01/11 21:36:17;;;;;;;30.4;19.3;;;;;;;-2.66;87.84;99333.333333333;;;;
2024/01/11 21:46:15;;;;;;;44.4;23;;;;;;;-2.71;88.05;99335;;;;
2024/01/11 21:56:15;;;;;;;44.4;23;;;;;;;-2.57;87.68;99336.666666667;;;;
2024/01/11 22:07:15;;;;;;;44.4;23;;;;;;;-2.48;87.86;99335;;;;
2024/01/11 22:17:15;;;;;;;39.7;23.5;;;;;;;-2.55;87.61;99350;;;;
2024/01/11 22:27:15;;;;;;;39.7;23.5;;;;;;;-2.61;87.98;99351.666666667;;;;
2024/01/11 22:38:15;;;;;;;39.7;23.5;;;;;;;-2.49;87.82;99350;;;;
2024/01/11 22:48:15;;;;;;;37.4;22.4;;;;;;;-2.65;88.25;99343.333333333;;;;
2024/01/11 22:59:15;;;;;;;37.4;22.4;;;;;;;-2.51;88.07;99351.666666667;;;;
2024/01/11 23:09:15;;;;;;;34;20.8;;;;;;;-2.5;87.9;99358.333333333;;;;
2024/01/11 23:19:15;;;;;;;34;20.8;;;;;;;-2.46;87.67;99358.333333333;;;;
2024/01/11 23:29:15;;;;;;;34;20.8;;;;;;;-2.37;87.36;99370;;;;
2024/01/11 23:40:15;;;;;;;33.4;19.3;;;;;;;-2.36;87.51;99371.666666667;;;;
2024/01/11 23:51:15;;;;;;;33.4;19.3;;;;;;;-2.24;87.33;99368.333333333;;;;
